createdAt,value
2023-02-03T00:04:12.149Z,99516.30
2023-02-03T00:09:15.832Z,99518.98
2023-02-03T00:14:19.279Z,99519.99
2023-02-03T00:19:22.604Z,99515.77
2023-02-03T00:24:26.337Z,99521.73
2023-02-03T00:29:29.668Z,99538.90
2023-02-03T00:34:32.868Z,99545.58
2023-02-03T00:39:37.592Z,99548.98
2023-02-03T00:44:41.013Z,99556.69
2023-02-03T00:49:44.612Z,99559.66
2023-02-03T00:54:47.911Z,99561.30
2023-02-03T00:59:51.247Z,99560.21
2023-02-03T01:04:54.662Z,99568.67
2023-02-03T01:09:58.010Z,99571.14
2023-02-03T01:15:01.562Z,99567.18
2023-02-03T01:20:05.722Z,99563.23
2023-02-03T01:25:09.622Z,99574.73
2023-02-03T01:30:14.722Z,99571.02
2023-02-03T01:35:18.002Z,99570.96
2023-02-03T01:40:21.419Z,99570.92
2023-02-03T01:45:25.070Z,99573.88
2023-02-03T01:50:33.890Z,99577.92
2023-02-03T01:55:44.879Z,99571.90
2023-02-03T02:00:50.231Z,99569.66
2023-02-03T02:06:05.836Z,99564.70
2023-02-03T02:11:09.496Z,99557.47
2023-02-03T02:16:38.793Z,99549.10
2023-02-03T02:21:53.813Z,99545.52
2023-02-03T02:26:59.950Z,99540.36
2023-02-03T02:32:21.985Z,99541.91
2023-02-03T02:37:37.439Z,99541.91
2023-02-03T02:43:01.019Z,99545.22
2023-02-03T02:48:17.311Z,99552.37
2023-02-03T02:53:25.017Z,99557.40
2023-02-03T02:58:32.324Z,99556.52
2023-02-03T03:03:35.881Z,99550.30
2023-02-03T03:08:50.500Z,99542.66
2023-02-03T03:13:56.159Z,99528.73
2023-02-03T03:18:59.551Z,99513.48
2023-02-03T03:24:08.678Z,99499.27
2023-02-03T03:29:18.159Z,99501.65
2023-02-03T03:34:21.691Z,99515.02
2023-02-03T03:40:00.805Z,99535.09
2023-02-03T03:45:32.391Z,99543.05
2023-02-03T03:50:56.383Z,99537.84
2023-02-03T03:56:02.601Z,99542.09
2023-02-03T04:01:08.824Z,99531.84
2023-02-03T04:06:13.517Z,99512.63
2023-02-03T04:11:36.806Z,99503.52
2023-02-03T04:16:40.371Z,99497.17
2023-02-03T04:21:43.747Z,99493.26
2023-02-03T04:26:47.471Z,99493.22
2023-02-03T04:31:50.816Z,99490.52
2023-02-03T04:36:54.675Z,99492.19
2023-02-03T04:41:58.000Z,99499.18
2023-02-03T04:47:01.333Z,99500.12
2023-02-03T04:52:05.071Z,99495.80
2023-02-03T04:57:08.853Z,99482.85
2023-02-03T05:02:12.115Z,99486.14
2023-02-03T05:07:15.472Z,99479.67
2023-02-03T05:12:18.847Z,99477.65
2023-02-03T05:17:22.200Z,99475.27
2023-02-03T05:22:25.588Z,99470.62
2023-02-03T05:27:28.927Z,99466.95
2023-02-03T05:32:32.287Z,99463.75
2023-02-03T05:37:35.719Z,99455.58
2023-02-03T05:42:38.995Z,99444.87
2023-02-03T05:47:42.501Z,99436.67
2023-02-03T05:52:45.838Z,99439.99
2023-02-03T05:57:49.254Z,99438.70
2023-02-03T06:02:54.805Z,99432.50
2023-02-03T06:07:58.339Z,99427.08
2023-02-03T06:13:12.072Z,99422.79
2023-02-03T06:18:15.418Z,99410.52
2023-02-03T06:23:19.400Z,99396.54
2023-02-03T06:28:22.941Z,99385.80
2023-02-03T06:33:26.217Z,99381.95
2023-02-03T06:38:29.647Z,99374.83
2023-02-03T06:43:33.037Z,99367.77
2023-02-03T06:48:36.318Z,99371.67
2023-02-03T06:53:39.522Z,99362.88
2023-02-03T06:58:43.135Z,99348.27
2023-02-03T07:03:47.167Z,99352.20
2023-02-03T07:08:50.579Z,99347.95
2023-02-03T07:13:54.657Z,99345.75
2023-02-03T07:18:58.741Z,99335.31
2023-02-03T07:24:03.458Z,99332.41
2023-02-03T07:29:07.125Z,99322.87
2023-02-03T07:34:10.734Z,99319.75
2023-02-03T07:39:14.230Z,99317.20
2023-02-03T07:44:17.684Z,99309.48
2023-02-03T07:49:21.102Z,99297.43
2023-02-03T07:54:24.739Z,99284.06
2023-02-03T07:59:28.218Z,99276.22
2023-02-03T08:04:31.626Z,99265.18
2023-02-03T08:09:35.012Z,99252.86
2023-02-03T08:14:38.345Z,99246.52
2023-02-03T08:19:41.757Z,99235.41
2023-02-03T08:24:46.997Z,99230.04
2023-02-03T08:29:50.813Z,99218.70
2023-02-03T08:34:57.245Z,99214.30
2023-02-03T08:40:00.821Z,99205.71
2023-02-03T08:45:05.513Z,99190.27
2023-02-03T08:50:13.693Z,99176.42
2023-02-03T08:55:17.084Z,99163.70
2023-02-03T09:00:21.124Z,99158.88
2023-02-03T09:05:24.465Z,99151.64
2023-02-03T09:10:28.192Z,99143.50
2023-02-03T09:15:31.776Z,99137.34
2023-02-03T09:20:35.343Z,99130.30
2023-02-03T09:25:39.107Z,99132.60
2023-02-03T09:30:42.501Z,99127.69
2023-02-03T09:35:53.348Z,99126.80
2023-02-03T09:41:11.622Z,99118.61
2023-02-03T09:46:23.720Z,99105.89
2023-02-03T09:51:32.659Z,99098.07
2023-02-03T09:56:37.411Z,99086.66
2023-02-03T10:02:18.494Z,99079.65
2023-02-03T10:07:36.045Z,99072.45
2023-02-03T10:12:55.020Z,99069.19
2023-02-03T10:18:02.803Z,99055.69
2023-02-03T10:23:20.256Z,99034.15
2023-02-03T10:28:30.370Z,99015.13
2023-02-03T10:33:34.698Z,98993.75
2023-02-03T10:38:47.260Z,98972.16
2023-02-03T10:43:53.435Z,98952.69
2023-02-03T10:48:57.523Z,98936.32
2023-02-03T10:54:01.384Z,98924.73
2023-02-03T10:59:06.765Z,98900.98
2023-02-03T11:04:34.002Z,98881.60
2023-02-03T11:09:39.827Z,98862.84
2023-02-03T11:14:51.636Z,98847.14
2023-02-03T11:20:16.130Z,98824.20
2023-02-03T11:25:26.504Z,98811.69
2023-02-03T11:30:30.633Z,98792.75
2023-02-03T11:35:38.220Z,98770.98
2023-02-03T11:40:42.942Z,98759.42
2023-02-03T11:45:50.714Z,98735.45
2023-02-03T11:51:24.701Z,98723.09
2023-02-03T11:56:34.719Z,98700.87
2023-02-03T12:01:49.811Z,98681.71
2023-02-03T12:07:24.975Z,98658.41
2023-02-03T12:12:54.427Z,98636.11
2023-02-03T12:18:09.920Z,98616.98
2023-02-03T12:23:24.992Z,98602.70
2023-02-03T12:28:34.466Z,98579.58
2023-02-03T12:33:56.874Z,98560.40
2023-02-03T12:39:06.443Z,98547.83
2023-02-03T12:44:26.185Z,98530.75
2023-02-03T12:49:39.048Z,98512.65
2023-02-03T12:54:57.540Z,98495.22
2023-02-03T13:00:19.975Z,98478.48
2023-02-03T13:05:30.663Z,98459.10
2023-02-03T13:10:45.276Z,98445.67
2023-02-03T13:15:52.805Z,98425.30
2023-02-03T13:20:57.341Z,98411.82
2023-02-03T13:26:12.775Z,98397.34
2023-02-03T13:31:35.956Z,98385.60
2023-02-03T13:36:51.711Z,98365.94
2023-02-03T13:42:07.693Z,98349.70
2023-02-03T13:47:23.001Z,98331.93
2023-02-03T13:52:38.497Z,98315.94
2023-02-03T13:57:41.893Z,98299.42
2023-02-03T14:02:53.893Z,98286.19
2023-02-03T14:07:57.898Z,98270.40
2023-02-03T14:13:02.805Z,98254.39
2023-02-03T14:18:34.252Z,98236.66
2023-02-03T14:23:48.430Z,98216.38
2023-02-03T14:28:53.962Z,98204.27
2023-02-03T14:34:05.607Z,98188.58
2023-02-03T14:40:00.719Z,98179.23
2023-02-03T14:45:16.957Z,98164.45
2023-02-03T14:50:20.070Z,98149.19
2023-02-03T14:55:38.216Z,98136.65
2023-02-03T15:00:41.672Z,98126.89
2023-02-03T15:05:50.139Z,98118.67
2023-02-03T15:10:53.484Z,98113.09
2023-02-03T15:16:00.738Z,98110.16
2023-02-03T15:21:05.140Z,98110.73
2023-02-03T15:26:17.743Z,98104.16
2023-02-03T15:31:21.516Z,98103.52
2023-02-03T15:36:33.716Z,98103.05
2023-02-03T15:41:37.776Z,98111.88
2023-02-03T15:46:48.704Z,98107.18
2023-02-03T15:52:12.402Z,98092.70
2023-02-03T15:57:23.475Z,98090.29
2023-02-03T16:02:39.793Z,98099.25
2023-02-03T16:07:43.452Z,98096.13
2023-02-03T16:12:46.886Z,98085.95
2023-02-03T16:17:57.712Z,98087.52
2023-02-03T16:23:03.216Z,98090.22
2023-02-03T16:28:29.304Z,98094.72
2023-02-03T16:33:53.104Z,98093.45
2023-02-03T16:39:16.701Z,98096.10
2023-02-03T16:44:38.486Z,98092.48
2023-02-03T16:50:00.862Z,98098.52
2023-02-03T16:55:04.512Z,98083.92
2023-02-03T17:00:09.595Z,98084.27
2023-02-03T17:05:13.213Z,98080.11
2023-02-03T17:10:16.779Z,98083.28
2023-02-03T17:15:21.102Z,98084.45
2023-02-03T17:20:24.649Z,98082.56
2023-02-03T17:25:28.246Z,98086.35
2023-02-03T17:30:35.618Z,98092.55
2023-02-03T17:35:43.636Z,98106.88
2023-02-03T17:56:51.929Z,98145.83
2023-02-03T18:01:55.470Z,98156.40
2023-02-03T18:06:58.836Z,98164.65
2023-02-03T18:12:02.395Z,98168.53
2023-02-03T18:17:05.857Z,98178.98
2023-02-03T18:22:09.425Z,98177.35
2023-02-03T18:27:17.076Z,98183.68
2023-02-03T18:32:20.909Z,98190.07
2023-02-03T18:37:24.300Z,98192.23
2023-02-03T18:42:27.979Z,98191.98
2023-02-03T18:47:32.080Z,98185.40
2023-02-03T18:52:35.624Z,98189.85
2023-02-03T18:57:39.787Z,98200.26
2023-02-03T19:02:43.645Z,98208.98
2023-02-03T19:07:47.311Z,98213.38
2023-02-03T19:12:50.714Z,98212.84
2023-02-03T19:17:54.009Z,98210.58
2023-02-03T19:22:57.613Z,98208.15
2023-02-03T19:28:01.872Z,98210.48
2023-02-03T19:33:05.696Z,98217.13
2023-02-03T19:38:09.139Z,98216.91
2023-02-03T19:43:13.045Z,98220.38
2023-02-03T19:48:16.478Z,98219.59
2023-02-03T19:53:19.889Z,98224.02
2023-02-03T19:58:24.354Z,98232.83
2023-02-03T20:03:28.131Z,98237.75
2023-02-03T20:08:31.724Z,98242.68
2023-02-03T20:13:35.467Z,98239.79
2023-02-03T20:18:39.122Z,98241.13
2023-02-03T20:23:42.541Z,98232.55
2023-02-03T20:28:47.578Z,98225.75
2023-02-03T20:33:52.503Z,98220.93
2023-02-03T20:38:55.996Z,98215.63
2023-02-03T20:43:59.322Z,98209.42
2023-02-03T20:49:03.192Z,98209.86
2023-02-03T20:54:16.895Z,98205.29
2023-02-03T20:59:20.396Z,98208.44
2023-02-03T21:04:42.122Z,98211.21
2023-02-03T21:09:45.550Z,98211.53
2023-02-03T21:14:49.666Z,98211.59
2023-02-03T21:19:54.967Z,98215.46
2023-02-03T21:25:00.340Z,98211.94
2023-02-03T21:30:24.404Z,98207.76
2023-02-03T21:35:40.306Z,98214.06
2023-02-03T21:40:43.659Z,98222.91
2023-02-03T21:45:47.019Z,98225.45
2023-02-03T21:50:51.173Z,98225.04
2023-02-03T21:55:55.329Z,98227.09
2023-02-03T22:01:00.978Z,98229.84
2023-02-03T22:06:16.877Z,98226.61
2023-02-03T22:11:22.482Z,98227.14
2023-02-03T22:16:29.174Z,98224.38
2023-02-03T22:21:32.536Z,98218.27
2023-02-03T22:26:35.909Z,98217.02
2023-02-03T22:31:41.002Z,98224.20
2023-02-03T22:36:44.520Z,98229.64
2023-02-03T22:41:47.760Z,98221.81
2023-02-03T22:46:51.087Z,98217.60
2023-02-03T22:51:54.320Z,98217.23
2023-02-03T22:56:57.602Z,98220.91
2023-02-03T23:02:01.352Z,98225.29
2023-02-03T23:07:04.908Z,98225.77
2023-02-03T23:12:08.838Z,98225.33
2023-02-03T23:17:12.092Z,98220.43
2023-02-03T23:22:15.966Z,98218.23
2023-02-03T23:27:19.573Z,98215.98
2023-02-03T23:32:22.845Z,98212.20
2023-02-03T23:37:26.247Z,98206.10
2023-02-03T23:42:29.503Z,98197.31
2023-02-03T23:47:32.776Z,98196.71
2023-02-03T23:52:36.448Z,98196.63
2023-02-03T23:57:42.834Z,98189.27
